Point Vicente — WDB9763 — position and weather

sailwx.info

Track history (hours):
 
Tides and Currents Weather Stations Pressure Air Temp Water Temp Dewpoint Dewpoint Depression Visibility Wind Speed Wind Dir Waves Ship Positions

Point Vicente

Owner: Foss Maritime Company, Seattle, WA. More information available from US FCC via Universal Licensing System and Coast Guard Vessel Documentation Center.

Last reported at 2014-Dec-08 18:32 UTC. Time now 2014-Dec-18 08:31 UTC.
Position N 37°54' W 122°22'.
Warning: this ship's position is 9 days out of date.

Length 32 m; draft 4.3 m.

Type: Tug. MMSI: 366982330.

Date/timePositionNaut miles runAvg speedWind from/ knotsBaromVisibWave heightAir tempDewpointWater temp
2014-Dec-08 18:32N 37°54' W 122°22'0 0.0
2014-Dec-08 17:29N 37°54' W 122°22'0 0.0
2014-Dec-08 16:32N 37°54' W 122°22'0 0.0
2014-Dec-08 15:32N 37°54' W 122°22'0 0.0
2014-Dec-08 14:32N 37°54' W 122°22'0 0.0
2014-Dec-08 13:32N 37°54' W 122°22'0 0.0
2014-Dec-08 12:32N 37°54' W 122°22'0 0.0
2014-Dec-08 11:32N 37°54' W 122°22'0 0.0
2014-Dec-08 10:32N 37°54' W 122°22'0 0.0
2014-Dec-08 09:32N 37°54' W 122°22'0 0.0
2014-Dec-08 08:32N 37°54' W 122°22'0 0.0
2014-Dec-08 07:32N 37°54' W 122°22'0 0.0
2014-Dec-08 06:32N 37°54' W 122°22'0 0.0
2014-Dec-08 05:32N 37°54' W 122°22'0 0.0
2014-Dec-08 04:32N 37°54' W 122°22'1 0.8
2014-Dec-08 03:33N 37°55' W 122°22'2 2.5
2014-Dec-08 02:33N 37°54' W 122°24'3 3.1
2014-Dec-08 01:33N 37°51' W 122°23'5 5.4
2014-Dec-08 00:34N 37°45' W 122°21'0 0.5
2014-Dec-07 23:33N 37°45' W 122°21'0 0.0
2014-Dec-07 22:33N 37°45' W 122°21'0 0.0
2014-Dec-07 21:33N 37°45' W 122°21'0 0.2
2014-Dec-07 20:33N 37°45' W 122°21'0 0.1
2014-Dec-07 19:33N 37°45' W 122°20'0 0.0
2014-Dec-07 18:33N 37°45' W 122°20'3 2.8
2014-Dec-07 17:33N 37°48' W 122°21'2 2.3
2014-Dec-07 16:34N 37°49' W 122°19'6 6.1
2014-Dec-07 15:33N 37°54' W 122°23'1 0.6
2014-Dec-07 14:32N 37°54' W 122°22'0 0.0
2014-Dec-07 13:32N 37°54' W 122°22'0 0.0
2014-Dec-07 12:32N 37°54' W 122°22'0 0.0
2014-Dec-07 11:32N 37°54' W 122°22'0 0.0
2014-Dec-07 10:32N 37°54' W 122°22'0 0.0
2014-Dec-07 09:32N 37°54' W 122°22'0 0.0
2014-Dec-07 08:32N 37°54' W 122°22'0 0.0
2014-Dec-07 07:32N 37°54' W 122°22'0 0.0
2014-Dec-07 06:32N 37°54' W 122°22'0 0.0
2014-Dec-07 05:32N 37°54' W 122°22'0 0.0
2014-Dec-07 04:32N 37°54' W 122°22'0 0.0
2014-Dec-07 03:32N 37°54' W 122°22'0 0.0
2014-Dec-07 02:32N 37°54' W 122°22'0 0.0
2014-Dec-07 01:32N 37°54' W 122°22'0 0.0
2014-Dec-07 00:32N 37°54' W 122°22'0 0.0
2014-Dec-06 23:32N 37°54' W 122°22'0 0.0
2014-Dec-06 22:32N 37°54' W 122°22'0 0.0
2014-Dec-06 21:32N 37°54' W 122°22'0 0.0
2014-Dec-06 20:32N 37°54' W 122°22'0 0.0
2014-Dec-06 19:32N 37°54' W 122°22'0 0.0
2014-Dec-06 18:32N 37°54' W 122°22'0 0.0
2014-Dec-06 17:32N 37°54' W 122°22'0 0.0
2014-Dec-06 16:32N 37°54' W 122°22'0 0.0
2014-Dec-06 15:32N 37°54' W 122°22'0 0.0
2014-Dec-06 14:32N 37°54' W 122°22'0 0.0
2014-Dec-06 13:32N 37°54' W 122°22'0 0.0
2014-Dec-06 12:32N 37°54' W 122°22'0 0.0
2014-Dec-06 11:32N 37°54' W 122°22'0 0.0
2014-Dec-06 10:32N 37°54' W 122°22'0 0.0
2014-Dec-06 09:32N 37°54' W 122°22'0 0.0
2014-Dec-06 08:32N 37°54' W 122°22'0 0.0
2014-Dec-06 07:32N 37°54' W 122°22'0 0.0
2014-Dec-06 06:32N 37°54' W 122°22'0 0.0
2014-Dec-06 05:32N 37°54' W 122°22'0 0.0
2014-Dec-06 04:32N 37°54' W 122°22'0 0.0
2014-Dec-06 03:32N 37°54' W 122°22'0 0.0
2014-Dec-06 02:32N 37°54' W 122°22'0 0.0
2014-Dec-06 01:32N 37°54' W 122°22'0 0.0
2014-Dec-06 00:32N 37°54' W 122°22'0 0.0
2014-Dec-05 23:32N 37°54' W 122°22'0 0.0
2014-Dec-05 22:32N 37°54' W 122°22'0 0.0
2014-Dec-05 21:32N 37°54' W 122°22'0 0.0
2014-Dec-05 20:32N 37°54' W 122°22'0 0.3
2014-Dec-05 19:33N 37°54' W 122°22'0 0.2
2014-Dec-05 18:29N 37°54' W 122°22'0 0.0
2014-Dec-05 17:32N 37°54' W 122°22'0 0.0
2014-Dec-05 16:32N 37°54' W 122°22'0 0.0
2014-Dec-05 15:26N 37°54' W 122°22'0 0.0
2014-Dec-05 14:29N 37°54' W 122°22'0 0.0
2014-Dec-05 13:32N 37°54' W 122°22'0 0.0
2014-Dec-05 12:32N 37°54' W 122°22'0 0.0
2014-Dec-05 11:32N 37°54' W 122°22'0 0.0
2014-Dec-05 10:32N 37°54' W 122°22'0 0.0
2014-Dec-05 09:32N 37°54' W 122°22'0 0.0
2014-Dec-05 08:32N 37°54' W 122°22'0 0.0
2014-Dec-05 07:29N 37°54' W 122°22'0 0.0
2014-Dec-05 06:32N 37°54' W 122°22'0 0.0
2014-Dec-05 05:32N 37°54' W 122°22'0 0.0
2014-Dec-05 04:32N 37°54' W 122°22'0 0.0
2014-Dec-05 03:32N 37°54' W 122°22'0 0.0
2014-Dec-05 02:32N 37°54' W 122°22'0 0.0
2014-Dec-05 01:32N 37°54' W 122°22'0 0.0
2014-Dec-05 00:32N 37°54' W 122°22'0 0.0
2014-Dec-04 23:32N 37°54' W 122°22'0 0.0
2014-Dec-04 22:32N 37°54' W 122°22'0 0.0
2014-Dec-04 21:32N 37°54' W 122°22'0 0.0
2014-Dec-04 20:32N 37°54' W 122°22'0 0.0
2014-Dec-04 19:32N 37°54' W 122°22'0 0.0
2014-Dec-04 18:32N 37°54' W 122°22'0 0.0
2014-Dec-04 17:32N 37°54' W 122°22'0 0.0
2014-Dec-04 16:32N 37°54' W 122°22'0 0.0
2014-Dec-04 15:32N 37°54' W 122°22'0 0.0
2014-Dec-04 14:32N 37°54' W 122°22'0 0.0
2014-Dec-04 13:32N 37°54' W 122°22'0 0.0
2014-Dec-04 12:32N 37°54' W 122°22'0 0.0
2014-Dec-04 11:32N 37°54' W 122°22'0 0.0
2014-Dec-04 10:32N 37°54' W 122°22'0 0.0
2014-Dec-04 09:32N 37°54' W 122°22'0 0.0
2014-Dec-04 08:32N 37°54' W 122°22'0 0.0
2014-Dec-04 07:29N 37°54' W 122°22'0 0.0
2014-Dec-04 06:32N 37°54' W 122°22'0 0.0
2014-Dec-04 05:32N 37°54' W 122°22'0 0.0
2014-Dec-04 04:32N 37°54' W 122°22'0 0.0
2014-Dec-04 03:32N 37°54' W 122°22'0 0.0
2014-Dec-04 02:32N 37°54' W 122°22'0 0.0
2014-Dec-04 01:32N 37°54' W 122°22'0 0.0
2014-Dec-04 00:32N 37°54' W 122°22'0 0.0
2014-Dec-03 23:32N 37°54' W 122°22'0 0.0
2014-Dec-03 22:32N 37°54' W 122°22'0 0.0
2014-Dec-03 21:32N 37°54' W 122°22'0 0.0
2014-Dec-03 20:32N 37°54' W 122°22'0 0.0
2014-Dec-03 19:32N 37°54' W 122°22'0 0.0
2014-Dec-03 18:32N 37°54' W 122°22'0 0.0
2014-Dec-03 17:32N 37°54' W 122°22'0 0.0
2014-Dec-03 16:32N 37°54' W 122°22'0 0.0
2014-Dec-03 15:29N 37°54' W 122°22'0 0.0
2014-Dec-03 14:32N 37°54' W 122°22'0 0.0
2014-Dec-03 13:32N 37°54' W 122°22'0 0.0
2014-Dec-03 12:32N 37°54' W 122°22'0 0.0
2014-Dec-03 11:32N 37°54' W 122°22'0 0.0
2014-Dec-03 10:32N 37°54' W 122°22'0 0.0
2014-Dec-03 09:32N 37°54' W 122°22'3 3.5
2014-Dec-03 08:33N 37°51' W 122°23'3 3.4
2014-Dec-03 07:33N 37°49' W 122°20'4 3.7
2014-Dec-03 06:33N 37°45' W 122°21'0 0.2
2014-Dec-03 05:33N 37°45' W 122°21'0 0.2
2014-Dec-03 04:33N 37°45' W 122°21'0 0.0
2014-Dec-03 03:33N 37°45' W 122°21'0 0.0
2014-Dec-03 02:33N 37°45' W 122°21'3 3.3
2014-Dec-03 01:34N 37°48' W 122°22'7 6.9
2014-Dec-03 00:34N 37°54' W 122°25'2 2.0
2014-Dec-02 23:31N 37°55' W 122°22'0 0.0
2014-Dec-02 22:33N 37°55' W 122°22'0 0.0
2014-Dec-02 21:33N 37°55' W 122°22'1 0.8
2014-Dec-02 20:33N 37°55' W 122°22'1 0.5
2014-Dec-02 19:33N 37°54' W 122°22'0 0.0
2014-Dec-02 18:33N 37°54' W 122°22'0 0.0
2014-Dec-02 17:33N 37°54' W 122°22'0 0.0
2014-Dec-02 16:33N 37°54' W 122°22'0 0.0
2014-Dec-02 15:33N 37°54' W 122°22'0 0.0
2014-Dec-02 14:33N 37°54' W 122°22'0 0.0
2014-Dec-02 13:33N 37°54' W 122°22'0 0.0
2014-Dec-02 12:33N 37°54' W 122°22'0 0.0
2014-Dec-02 11:33N 37°54' W 122°22'0 0.0
2014-Dec-02 10:33N 37°54' W 122°22'0 0.0
2014-Dec-02 09:33N 37°54' W 122°22'0 0.0
2014-Dec-02 08:33N 37°54' W 122°22'0 0.0
2014-Dec-02 07:33N 37°54' W 122°22'0 0.0
2014-Dec-02 06:33N 37°54' W 122°22'0 0.0
2014-Dec-02 05:33N 37°54' W 122°22'0 0.0
2014-Dec-02 04:33N 37°54' W 122°22'0 0.0
2014-Dec-02 03:33N 37°54' W 122°22'0 0.0
2014-Dec-02 02:33N 37°54' W 122°22'0 0.0
2014-Dec-02 01:33N 37°54' W 122°22'0 0.0
2014-Dec-02 00:33N 37°54' W 122°22'0 0.2
2014-Dec-01 23:33N 37°54' W 122°23'0 0.2
2014-Dec-01 22:32N 37°54' W 122°22'0 0.0
2014-Dec-01 21:32N 37°54' W 122°22'0 0.0
2014-Dec-01 20:32N 37°54' W 122°22'0 0.0
2014-Dec-01 19:32N 37°54' W 122°22'0 0.0
2014-Dec-01 18:32N 37°54' W 122°22'0 0.0
2014-Dec-01 17:33N 37°54' W 122°22'0 0.0
2014-Dec-01 16:33N 37°54' W 122°22'0 0.0
2014-Dec-01 15:32N 37°54' W 122°22'0 0.0
2014-Dec-01 14:32N 37°54' W 122°22'0 0.0
2014-Dec-01 13:32N 37°54' W 122°22'0 0.0
2014-Dec-01 12:32N 37°54' W 122°22'0 0.0
2014-Dec-01 11:32N 37°54' W 122°22'0 0.0
2014-Dec-01 10:32N 37°54' W 122°22'0 0.0
2014-Dec-01 09:32N 37°54' W 122°22'0 0.1
2014-Dec-01 08:34N 37°54' W 122°22'3 2.8
2014-Dec-01 07:33N 37°52' W 122°24'8 8.4
2014-Dec-01 06:33N 37°44' W 122°20'0 0.0
2014-Dec-01 05:34N 37°44' W 122°20'0 0.1
2014-Dec-01 04:33N 37°44' W 122°20'0 0.2
2014-Dec-01 03:33N 37°44' W 122°20'0 0.0
2014-Dec-01 02:33N 37°44' W 122°20'0 0.0
2014-Dec-01 01:34N 37°44' W 122°20'0 0.0
2014-Dec-01 00:33N 37°44' W 122°20'0 0.0
2014-Nov-30 23:33N 37°44' W 122°20'0 0.3
2014-Nov-30 22:33N 37°44' W 122°20'0 0.1
2014-Nov-30 21:34N 37°44' W 122°20'0 0.4
2014-Nov-30 20:33N 37°44' W 122°21'5 5.0
2014-Nov-30 19:33N 37°49' W 122°23'6 5.7
2014-Nov-30 18:33N 37°54' W 122°24'1 1.4
2014-Nov-30 17:33N 37°54' W 122°22'0 0.0
2014-Nov-30 16:33N 37°54' W 122°22'0 0.0
2014-Nov-30 15:33N 37°54' W 122°22'0 0.0
2014-Nov-30 14:33N 37°54' W 122°22'0 0.0
2014-Nov-30 13:33N 37°54' W 122°22'0 0.0
2014-Nov-30 12:33N 37°54' W 122°22'0 0.0
2014-Nov-30 11:33N 37°54' W 122°22'0 0.0
2014-Nov-30 10:33N 37°54' W 122°22'0 0.0
2014-Nov-30 09:33N 37°54' W 122°22'0 0.0
2014-Nov-30 08:33N 37°54' W 122°22'0 0.0
2014-Nov-30 07:33N 37°54' W 122°22'0 0.0
2014-Nov-30 06:33N 37°54' W 122°22'0 0.0
2014-Nov-30 05:33N 37°54' W 122°22'0 0.0
2014-Nov-30 04:33N 37°54' W 122°22'0 0.0
2014-Nov-30 03:33N 37°54' W 122°22'0 0.0
2014-Nov-30 02:33N 37°54' W 122°22'0 0.0
2014-Nov-30 01:33N 37°54' W 122°22'0 0.0
2014-Nov-30 00:33N 37°54' W 122°22'0 0.0
2014-Nov-29 23:33N 37°54' W 122°22'0 0.0
2014-Nov-29 22:33N 37°54' W 122°22'0 0.0
2014-Nov-29 21:33N 37°54' W 122°22'0 0.0
2014-Nov-29 20:33N 37°54' W 122°22'0 0.0
2014-Nov-29 19:33N 37°54' W 122°22'0 0.0
2014-Nov-29 18:33N 37°54' W 122°22'0 0.0
2014-Nov-29 17:33N 37°54' W 122°22'0 0.0
2014-Nov-29 16:33N 37°54' W 122°22'0 0.0
2014-Nov-29 15:33N 37°54' W 122°22'0 0.0
2014-Nov-29 14:33N 37°54' W 122°22'0 0.0
2014-Nov-29 13:33N 37°54' W 122°22'0 0.0
2014-Nov-29 12:33N 37°54' W 122°22'0 0.0
2014-Nov-29 11:33N 37°54' W 122°22'0 0.0
2014-Nov-29 10:33N 37°54' W 122°22'0 0.0
2014-Nov-29 09:33N 37°54' W 122°22'0 0.0
2014-Nov-29 08:33N 37°54' W 122°22'0 0.0
2014-Nov-29 07:33N 37°54' W 122°22'0 0.0
2014-Nov-29 06:33N 37°54' W 122°22'0 0.0
2014-Nov-29 05:33N 37°54' W 122°22'0 0.0
2014-Nov-29 04:33N 37°54' W 122°22'0 0.0
2014-Nov-29 03:33N 37°54' W 122°22'0 0.0
2014-Nov-29 02:33N 37°54' W 122°22'0 0.0
2014-Nov-29 01:33N 37°54' W 122°22'0 0.0
2014-Nov-29 00:33N 37°54' W 122°22'0 0.0
2014-Nov-28 23:33N 37°54' W 122°22'0 0.0
2014-Nov-28 22:30N 37°54' W 122°22'0 0.0
2014-Nov-28 21:33N 37°54' W 122°22'0 0.0
2014-Nov-28 20:33N 37°54' W 122°22'0 0.0
2014-Nov-28 19:33N 37°54' W 122°22'0 0.0
2014-Nov-28 18:33N 37°54' W 122°22'  
Track history (hours):
 
Tides and Currents Weather Stations Pressure Air Temp Water Temp Dewpoint Dewpoint Depression Visibility Wind Speed Wind Dir Waves Ship Positions

Point Vicente

Owner: Foss Maritime Company, Seattle, WA. More information available from US FCC via Universal Licensing System and Coast Guard Vessel Documentation Center.

Last reported at 2014-Dec-08 18:32 UTC. Time now 2014-Dec-18 08:31 UTC.
Position N 37°54' W 122°22'.
Warning: this ship's position is 9 days out of date.

Length 32 m; draft 4.3 m.

Type: Tug. MMSI: 366982330.

Date/timePositionNaut miles runAvg speedWind from/ knotsBaromVisibWave heightAir tempDewpointWater temp
2014-Dec-08 18:32N 37°54' W 122°22'0 0.0
2014-Dec-08 17:29N 37°54' W 122°22'0 0.0
2014-Dec-08 16:32N 37°54' W 122°22'0 0.0
2014-Dec-08 15:32N 37°54' W 122°22'0 0.0
2014-Dec-08 14:32N 37°54' W 122°22'0 0.0
2014-Dec-08 13:32N 37°54' W 122°22'0 0.0
2014-Dec-08 12:32N 37°54' W 122°22'0 0.0
2014-Dec-08 11:32N 37°54' W 122°22'0 0.0
2014-Dec-08 10:32N 37°54' W 122°22'0 0.0
2014-Dec-08 09:32N 37°54' W 122°22'0 0.0
2014-Dec-08 08:32N 37°54' W 122°22'0 0.0
2014-Dec-08 07:32N 37°54' W 122°22'0 0.0
2014-Dec-08 06:32N 37°54' W 122°22'0 0.0
2014-Dec-08 05:32N 37°54' W 122°22'0 0.0
2014-Dec-08 04:32N 37°54' W 122°22'1 0.8
2014-Dec-08 03:33N 37°55' W 122°22'2 2.5
2014-Dec-08 02:33N 37°54' W 122°24'3 3.1
2014-Dec-08 01:33N 37°51' W 122°23'5 5.4
2014-Dec-08 00:34N 37°45' W 122°21'0 0.5
2014-Dec-07 23:33N 37°45' W 122°21'0 0.0
2014-Dec-07 22:33N 37°45' W 122°21'0 0.0
2014-Dec-07 21:33N 37°45' W 122°21'0 0.2
2014-Dec-07 20:33N 37°45' W 122°21'0 0.1
2014-Dec-07 19:33N 37°45' W 122°20'0 0.0
2014-Dec-07 18:33N 37°45' W 122°20'3 2.8
2014-Dec-07 17:33N 37°48' W 122°21'2 2.3
2014-Dec-07 16:34N 37°49' W 122°19'6 6.1
2014-Dec-07 15:33N 37°54' W 122°23'1 0.6
2014-Dec-07 14:32N 37°54' W 122°22'0 0.0
2014-Dec-07 13:32N 37°54' W 122°22'0 0.0
2014-Dec-07 12:32N 37°54' W 122°22'0 0.0
2014-Dec-07 11:32N 37°54' W 122°22'0 0.0
2014-Dec-07 10:32N 37°54' W 122°22'0 0.0
2014-Dec-07 09:32N 37°54' W 122°22'0 0.0
2014-Dec-07 08:32N 37°54' W 122°22'0 0.0
2014-Dec-07 07:32N 37°54' W 122°22'0 0.0
2014-Dec-07 06:32N 37°54' W 122°22'0 0.0
2014-Dec-07 05:32N 37°54' W 122°22'0 0.0
2014-Dec-07 04:32N 37°54' W 122°22'0 0.0
2014-Dec-07 03:32N 37°54' W 122°22'0 0.0
2014-Dec-07 02:32N 37°54' W 122°22'0 0.0
2014-Dec-07 01:32N 37°54' W 122°22'0 0.0
2014-Dec-07 00:32N 37°54' W 122°22'0 0.0
2014-Dec-06 23:32N 37°54' W 122°22'0 0.0
2014-Dec-06 22:32N 37°54' W 122°22'0 0.0
2014-Dec-06 21:32N 37°54' W 122°22'0 0.0
2014-Dec-06 20:32N 37°54' W 122°22'0 0.0
2014-Dec-06 19:32N 37°54' W 122°22'0 0.0
2014-Dec-06 18:32N 37°54' W 122°22'0 0.0
2014-Dec-06 17:32N 37°54' W 122°22'0 0.0
2014-Dec-06 16:32N 37°54' W 122°22'0 0.0
2014-Dec-06 15:32N 37°54' W 122°22'0 0.0
2014-Dec-06 14:32N 37°54' W 122°22'0 0.0
2014-Dec-06 13:32N 37°54' W 122°22'0 0.0
2014-Dec-06 12:32N 37°54' W 122°22'0 0.0
2014-Dec-06 11:32N 37°54' W 122°22'0 0.0
2014-Dec-06 10:32N 37°54' W 122°22'0 0.0
2014-Dec-06 09:32N 37°54' W 122°22'0 0.0
2014-Dec-06 08:32N 37°54' W 122°22'0 0.0
2014-Dec-06 07:32N 37°54' W 122°22'0 0.0
2014-Dec-06 06:32N 37°54' W 122°22'0 0.0
2014-Dec-06 05:32N 37°54' W 122°22'0 0.0
2014-Dec-06 04:32N 37°54' W 122°22'0 0.0
2014-Dec-06 03:32N 37°54' W 122°22'0 0.0
2014-Dec-06 02:32N 37°54' W 122°22'0 0.0
2014-Dec-06 01:32N 37°54' W 122°22'0 0.0
2014-Dec-06 00:32N 37°54' W 122°22'0 0.0
2014-Dec-05 23:32N 37°54' W 122°22'0 0.0
2014-Dec-05 22:32N 37°54' W 122°22'0 0.0
2014-Dec-05 21:32N 37°54' W 122°22'0 0.0
2014-Dec-05 20:32N 37°54' W 122°22'0 0.3
2014-Dec-05 19:33N 37°54' W 122°22'0 0.2
2014-Dec-05 18:29N 37°54' W 122°22'0 0.0
2014-Dec-05 17:32N 37°54' W 122°22'0 0.0
2014-Dec-05 16:32N 37°54' W 122°22'0 0.0
2014-Dec-05 15:26N 37°54' W 122°22'0 0.0
2014-Dec-05 14:29N 37°54' W 122°22'0 0.0
2014-Dec-05 13:32N 37°54' W 122°22'0 0.0
2014-Dec-05 12:32N 37°54' W 122°22'0 0.0
2014-Dec-05 11:32N 37°54' W 122°22'0 0.0
2014-Dec-05 10:32N 37°54' W 122°22'0 0.0
2014-Dec-05 09:32N 37°54' W 122°22'0 0.0
2014-Dec-05 08:32N 37°54' W 122°22'0 0.0
2014-Dec-05 07:29N 37°54' W 122°22'0 0.0
2014-Dec-05 06:32N 37°54' W 122°22'0 0.0
2014-Dec-05 05:32N 37°54' W 122°22'0 0.0
2014-Dec-05 04:32N 37°54' W 122°22'0 0.0
2014-Dec-05 03:32N 37°54' W 122°22'0 0.0
2014-Dec-05 02:32N 37°54' W 122°22'0 0.0
2014-Dec-05 01:32N 37°54' W 122°22'0 0.0
2014-Dec-05 00:32N 37°54' W 122°22'0 0.0
2014-Dec-04 23:32N 37°54' W 122°22'0 0.0
2014-Dec-04 22:32N 37°54' W 122°22'0 0.0
2014-Dec-04 21:32N 37°54' W 122°22'0 0.0
2014-Dec-04 20:32N 37°54' W 122°22'0 0.0
2014-Dec-04 19:32N 37°54' W 122°22'0 0.0
2014-Dec-04 18:32N 37°54' W 122°22'0 0.0
2014-Dec-04 17:32N 37°54' W 122°22'0 0.0
2014-Dec-04 16:32N 37°54' W 122°22'0 0.0
2014-Dec-04 15:32N 37°54' W 122°22'0 0.0
2014-Dec-04 14:32N 37°54' W 122°22'0 0.0
2014-Dec-04 13:32N 37°54' W 122°22'0 0.0
2014-Dec-04 12:32N 37°54' W 122°22'0 0.0
2014-Dec-04 11:32N 37°54' W 122°22'0 0.0
2014-Dec-04 10:32N 37°54' W 122°22'0 0.0
2014-Dec-04 09:32N 37°54' W 122°22'0 0.0
2014-Dec-04 08:32N 37°54' W 122°22'0 0.0
2014-Dec-04 07:29N 37°54' W 122°22'0 0.0
2014-Dec-04 06:32N 37°54' W 122°22'0 0.0
2014-Dec-04 05:32N 37°54' W 122°22'0 0.0
2014-Dec-04 04:32N 37°54' W 122°22'0 0.0
2014-Dec-04 03:32N 37°54' W 122°22'0 0.0
2014-Dec-04 02:32N 37°54' W 122°22'0 0.0
2014-Dec-04 01:32N 37°54' W 122°22'0 0.0
2014-Dec-04 00:32N 37°54' W 122°22'0 0.0
2014-Dec-03 23:32N 37°54' W 122°22'0 0.0
2014-Dec-03 22:32N 37°54' W 122°22'0 0.0
2014-Dec-03 21:32N 37°54' W 122°22'0 0.0
2014-Dec-03 20:32N 37°54' W 122°22'0 0.0
2014-Dec-03 19:32N 37°54' W 122°22'0 0.0
2014-Dec-03 18:32N 37°54' W 122°22'0 0.0
2014-Dec-03 17:32N 37°54' W 122°22'0 0.0
2014-Dec-03 16:32N 37°54' W 122°22'0 0.0
2014-Dec-03 15:29N 37°54' W 122°22'0 0.0
2014-Dec-03 14:32N 37°54' W 122°22'0 0.0
2014-Dec-03 13:32N 37°54' W 122°22'0 0.0
2014-Dec-03 12:32N 37°54' W 122°22'0 0.0
2014-Dec-03 11:32N 37°54' W 122°22'0 0.0
2014-Dec-03 10:32N 37°54' W 122°22'0 0.0
2014-Dec-03 09:32N 37°54' W 122°22'3 3.5
2014-Dec-03 08:33N 37°51' W 122°23'3 3.4
2014-Dec-03 07:33N 37°49' W 122°20'4 3.7
2014-Dec-03 06:33N 37°45' W 122°21'0 0.2
2014-Dec-03 05:33N 37°45' W 122°21'0 0.2
2014-Dec-03 04:33N 37°45' W 122°21'0 0.0
2014-Dec-03 03:33N 37°45' W 122°21'0 0.0
2014-Dec-03 02:33N 37°45' W 122°21'3 3.3
2014-Dec-03 01:34N 37°48' W 122°22'7 6.9
2014-Dec-03 00:34N 37°54' W 122°25'2 2.0
2014-Dec-02 23:31N 37°55' W 122°22'0 0.0
2014-Dec-02 22:33N 37°55' W 122°22'0 0.0
2014-Dec-02 21:33N 37°55' W 122°22'1 0.8
2014-Dec-02 20:33N 37°55' W 122°22'1 0.5
2014-Dec-02 19:33N 37°54' W 122°22'0 0.0
2014-Dec-02 18:33N 37°54' W 122°22'0 0.0
2014-Dec-02 17:33N 37°54' W 122°22'0 0.0
2014-Dec-02 16:33N 37°54' W 122°22'0 0.0
2014-Dec-02 15:33N 37°54' W 122°22'0 0.0
2014-Dec-02 14:33N 37°54' W 122°22'0 0.0
2014-Dec-02 13:33N 37°54' W 122°22'0 0.0
2014-Dec-02 12:33N 37°54' W 122°22'0 0.0
2014-Dec-02 11:33N 37°54' W 122°22'0 0.0
2014-Dec-02 10:33N 37°54' W 122°22'0 0.0
2014-Dec-02 09:33N 37°54' W 122°22'0 0.0
2014-Dec-02 08:33N 37°54' W 122°22'0 0.0
2014-Dec-02 07:33N 37°54' W 122°22'0 0.0
2014-Dec-02 06:33N 37°54' W 122°22'0 0.0
2014-Dec-02 05:33N 37°54' W 122°22'0 0.0
2014-Dec-02 04:33N 37°54' W 122°22'0 0.0
2014-Dec-02 03:33N 37°54' W 122°22'0 0.0
2014-Dec-02 02:33N 37°54' W 122°22'0 0.0
2014-Dec-02 01:33N 37°54' W 122°22'0 0.0
2014-Dec-02 00:33N 37°54' W 122°22'0 0.2
2014-Dec-01 23:33N 37°54' W 122°23'0 0.2
2014-Dec-01 22:32N 37°54' W 122°22'0 0.0
2014-Dec-01 21:32N 37°54' W 122°22'0 0.0
2014-Dec-01 20:32N 37°54' W 122°22'0 0.0
2014-Dec-01 19:32N 37°54' W 122°22'0 0.0
2014-Dec-01 18:32N 37°54' W 122°22'0 0.0
2014-Dec-01 17:33N 37°54' W 122°22'0 0.0
2014-Dec-01 16:33N 37°54' W 122°22'0 0.0
2014-Dec-01 15:32N 37°54' W 122°22'0 0.0
2014-Dec-01 14:32N 37°54' W 122°22'0 0.0
2014-Dec-01 13:32N 37°54' W 122°22'0 0.0
2014-Dec-01 12:32N 37°54' W 122°22'0 0.0
2014-Dec-01 11:32N 37°54' W 122°22'0 0.0
2014-Dec-01 10:32N 37°54' W 122°22'0 0.0
2014-Dec-01 09:32N 37°54' W 122°22'0 0.1
2014-Dec-01 08:34N 37°54' W 122°22'3 2.8
2014-Dec-01 07:33N 37°52' W 122°24'8 8.4
2014-Dec-01 06:33N 37°44' W 122°20'0 0.0
2014-Dec-01 05:34N 37°44' W 122°20'0 0.1
2014-Dec-01 04:33N 37°44' W 122°20'0 0.2
2014-Dec-01 03:33N 37°44' W 122°20'0 0.0
2014-Dec-01 02:33N 37°44' W 122°20'0 0.0
2014-Dec-01 01:34N 37°44' W 122°20'0 0.0
2014-Dec-01 00:33N 37°44' W 122°20'0 0.0
2014-Nov-30 23:33N 37°44' W 122°20'0 0.3
2014-Nov-30 22:33N 37°44' W 122°20'0 0.1
2014-Nov-30 21:34N 37°44' W 122°20'0 0.4
2014-Nov-30 20:33N 37°44' W 122°21'5 5.0
2014-Nov-30 19:33N 37°49' W 122°23'6 5.7
2014-Nov-30 18:33N 37°54' W 122°24'1 1.4
2014-Nov-30 17:33N 37°54' W 122°22'0 0.0
2014-Nov-30 16:33N 37°54' W 122°22'0 0.0
2014-Nov-30 15:33N 37°54' W 122°22'0 0.0
2014-Nov-30 14:33N 37°54' W 122°22'0 0.0
2014-Nov-30 13:33N 37°54' W 122°22'0 0.0
2014-Nov-30 12:33N 37°54' W 122°22'0 0.0
2014-Nov-30 11:33N 37°54' W 122°22'0 0.0
2014-Nov-30 10:33N 37°54' W 122°22'0 0.0
2014-Nov-30 09:33N 37°54' W 122°22'0 0.0
2014-Nov-30 08:33N 37°54' W 122°22'0 0.0
2014-Nov-30 07:33N 37°54' W 122°22'0 0.0
2014-Nov-30 06:33N 37°54' W 122°22'0 0.0
2014-Nov-30 05:33N 37°54' W 122°22'0 0.0
2014-Nov-30 04:33N 37°54' W 122°22'0 0.0
2014-Nov-30 03:33N 37°54' W 122°22'0 0.0
2014-Nov-30 02:33N 37°54' W 122°22'0 0.0
2014-Nov-30 01:33N 37°54' W 122°22'0 0.0
2014-Nov-30 00:33N 37°54' W 122°22'0 0.0
2014-Nov-29 23:33N 37°54' W 122°22'0 0.0
2014-Nov-29 22:33N 37°54' W 122°22'0 0.0
2014-Nov-29 21:33N 37°54' W 122°22'0 0.0
2014-Nov-29 20:33N 37°54' W 122°22'0 0.0
2014-Nov-29 19:33N 37°54' W 122°22'0 0.0
2014-Nov-29 18:33N 37°54' W 122°22'0 0.0
2014-Nov-29 17:33N 37°54' W 122°22'0 0.0
2014-Nov-29 16:33N 37°54' W 122°22'0 0.0
2014-Nov-29 15:33N 37°54' W 122°22'0 0.0
2014-Nov-29 14:33N 37°54' W 122°22'0 0.0
2014-Nov-29 13:33N 37°54' W 122°22'0 0.0
2014-Nov-29 12:33N 37°54' W 122°22'0 0.0
2014-Nov-29 11:33N 37°54' W 122°22'0 0.0
2014-Nov-29 10:33N 37°54' W 122°22'0 0.0
2014-Nov-29 09:33N 37°54' W 122°22'0 0.0
2014-Nov-29 08:33N 37°54' W 122°22'0 0.0
2014-Nov-29 07:33N 37°54' W 122°22'0 0.0
2014-Nov-29 06:33N 37°54' W 122°22'0 0.0
2014-Nov-29 05:33N 37°54' W 122°22'0 0.0
2014-Nov-29 04:33N 37°54' W 122°22'0 0.0
2014-Nov-29 03:33N 37°54' W 122°22'0 0.0
2014-Nov-29 02:33N 37°54' W 122°22'0 0.0
2014-Nov-29 01:33N 37°54' W 122°22'0 0.0
2014-Nov-29 00:33N 37°54' W 122°22'0 0.0
2014-Nov-28 23:33N 37°54' W 122°22'0 0.0
2014-Nov-28 22:30N 37°54' W 122°22'0 0.0
2014-Nov-28 21:33N 37°54' W 122°22'0 0.0
2014-Nov-28 20:33N 37°54' W 122°22'0 0.0
2014-Nov-28 19:33N 37°54' W 122°22'0 0.0
2014-Nov-28 18:33N 37°54' W 122°22'  

Dump ship's entire track history